createdAt,value
2018-09-11T00:02:15.971Z,78.70
2018-09-11T00:04:44.399Z,78.80
2018-09-11T00:07:13.143Z,78.80
2018-09-11T00:09:41.538Z,78.90
2018-09-11T00:12:10.432Z,78.90
2018-09-11T00:14:38.857Z,78.90
2018-09-11T00:17:08.302Z,78.90
2018-09-11T00:19:36.621Z,78.80
2018-09-11T00:22:05.307Z,78.80
2018-09-11T00:24:33.625Z,78.90
2018-09-11T00:27:22.726Z,78.90
2018-09-11T00:29:51.090Z,78.90
2018-09-11T00:32:19.470Z,78.80
2018-09-11T00:34:47.839Z,78.80
2018-09-11T00:37:16.186Z,78.80
2018-09-11T00:39:44.754Z,78.80
2018-09-11T00:42:13.126Z,78.90
2018-09-11T00:44:41.516Z,78.90
2018-09-11T00:47:09.803Z,78.90
2018-09-11T00:49:38.385Z,78.80
2018-09-11T00:52:07.024Z,78.80
2018-09-11T00:54:35.691Z,78.90
2018-09-11T00:57:03.982Z,79.00
2018-09-11T00:59:32.289Z,78.90
2018-09-11T01:02:00.912Z,79.00
2018-09-11T01:04:29.238Z,79.10
2018-09-11T01:09:31.244Z,79.00
2018-09-11T01:11:59.569Z,79.00
2018-09-11T01:14:27.914Z,79.10
2018-09-11T01:16:56.225Z,79.20
2018-09-11T01:19:24.668Z,79.10
2018-09-11T01:21:53.062Z,79.00
2018-09-11T01:24:21.375Z,79.00
2018-09-11T01:26:49.705Z,79.10
2018-09-11T01:29:18.258Z,79.10
2018-09-11T01:31:46.616Z,79.10
2018-09-11T01:34:14.952Z,79.20
2018-09-11T01:36:43.325Z,79.20
2018-09-11T01:39:12.963Z,79.20
2018-09-11T01:41:41.489Z,79.30
2018-09-11T01:44:10.326Z,79.30
2018-09-11T01:46:38.685Z,79.30
2018-09-11T01:49:07.193Z,79.30
2018-09-11T01:51:35.540Z,79.30
2018-09-11T01:54:03.950Z,79.30
2018-09-11T01:56:32.312Z,79.30
2018-09-11T01:59:00.725Z,79.30
2018-09-11T02:01:29.076Z,79.20
2018-09-11T02:03:57.522Z,79.30
2018-09-11T02:06:25.933Z,79.40
2018-09-11T02:08:54.209Z,79.40
2018-09-11T02:11:22.522Z,79.30
2018-09-11T02:13:51.671Z,79.40
2018-09-11T02:16:20.126Z,79.40
2018-09-11T02:18:48.477Z,79.40
2018-09-11T02:21:17.140Z,79.50
2018-09-11T02:23:45.449Z,79.40
2018-09-11T02:26:13.892Z,79.60
2018-09-11T02:28:42.322Z,80.40
2018-09-11T02:31:10.716Z,79.80
2018-09-11T02:33:39.032Z,79.80
2018-09-11T02:36:07.566Z,79.90
2018-09-11T02:38:35.946Z,80.10
2018-09-11T02:41:04.210Z,80.10
2018-09-11T02:43:32.662Z,80.30
2018-09-11T02:46:01.310Z,79.60
2018-09-11T02:48:29.666Z,80.20
2018-09-11T02:50:58.130Z,80.10
2018-09-11T02:53:26.581Z,80.10
2018-09-11T02:55:55.477Z,80.10
2018-09-11T02:58:24.287Z,80.10
2018-09-11T03:00:52.724Z,80.20
2018-09-11T03:03:21.100Z,80.30
2018-09-11T03:05:55.580Z,80.30
2018-09-11T03:08:23.900Z,80.30
2018-09-11T03:10:52.246Z,80.40
2018-09-11T03:13:20.973Z,80.30
2018-09-11T03:15:49.288Z,80.30
2018-09-11T03:18:17.762Z,80.30
2018-09-11T03:20:46.095Z,80.40
2018-09-11T03:23:14.365Z,80.40
2018-09-11T03:25:42.713Z,80.40
2018-09-11T03:28:11.048Z,80.30
2018-09-11T03:30:39.426Z,80.40
2018-09-11T03:33:07.795Z,80.40
2018-09-11T03:35:36.231Z,80.50
2018-09-11T03:38:04.799Z,80.40
2018-09-11T03:40:33.148Z,80.40
2018-09-11T03:43:01.552Z,80.50
2018-09-11T03:45:29.944Z,80.60
2018-09-11T03:47:58.279Z,80.70
2018-09-11T03:50:26.616Z,80.70
2018-09-11T03:52:55.006Z,80.70
2018-09-11T03:55:23.442Z,80.70
2018-09-11T03:57:51.741Z,80.60
2018-09-11T04:00:20.094Z,80.60
2018-09-11T04:02:49.506Z,80.70
2018-09-11T04:05:18.045Z,80.70
2018-09-11T04:07:46.380Z,80.80
2018-09-11T04:10:19.587Z,80.80
2018-09-11T04:12:47.978Z,80.80
2018-09-11T04:15:16.466Z,80.80
2018-09-11T04:17:45.120Z,80.90
2018-09-11T04:20:13.455Z,80.90
2018-09-11T04:22:41.837Z,80.90
2018-09-11T04:25:10.179Z,81.00
2018-09-11T04:27:38.519Z,81.00
2018-09-11T04:30:06.887Z,81.10
2018-09-11T04:32:35.334Z,81.10
2018-09-11T04:35:03.655Z,81.10
2018-09-11T04:37:31.994Z,81.10
2018-09-11T04:40:00.270Z,81.00
2018-09-11T04:42:28.677Z,81.10
2018-09-11T04:44:56.945Z,81.20
2018-09-11T04:47:25.372Z,81.40
2018-09-11T04:49:53.742Z,81.50
2018-09-11T04:52:22.229Z,81.50
2018-09-11T04:54:50.577Z,81.50
2018-09-11T04:57:23.792Z,82.00
2018-09-11T04:59:52.184Z,81.80
2018-09-11T05:02:20.557Z,81.70
2018-09-11T05:04:49.329Z,81.80
2018-09-11T05:07:19.080Z,81.40
2018-09-11T05:09:47.390Z,81.70
2018-09-11T05:12:15.796Z,81.80
2018-09-11T05:14:44.118Z,81.80
2018-09-11T05:17:12.453Z,81.80
2018-09-11T05:19:40.902Z,81.80
2018-09-11T05:22:09.179Z,81.90
2018-09-11T05:24:37.598Z,81.80
2018-09-11T05:27:05.863Z,81.80
2018-09-11T05:29:34.199Z,81.80
2018-09-11T05:32:02.565Z,81.90
2018-09-11T05:34:30.928Z,82.00
2018-09-11T05:36:59.326Z,82.00
2018-09-11T05:39:27.706Z,82.20
2018-09-11T05:41:55.967Z,82.10
2018-09-11T05:44:24.314Z,82.20
2018-09-11T05:46:52.621Z,82.20
2018-09-11T05:49:21.037Z,82.10
2018-09-11T05:51:49.408Z,82.10
2018-09-11T05:54:17.867Z,82.00
2018-09-11T05:56:46.166Z,81.90
2018-09-11T05:59:14.611Z,81.90
2018-09-11T06:01:43.071Z,81.90
2018-09-11T06:04:11.391Z,81.80
2018-09-11T06:06:39.858Z,81.80
2018-09-11T06:09:09.605Z,81.80
2018-09-11T06:11:37.998Z,81.80
2018-09-11T06:14:06.386Z,81.90
2018-09-11T06:16:34.755Z,81.90
2018-09-11T06:19:03.090Z,81.80
2018-09-11T06:21:31.599Z,81.90
2018-09-11T06:24:00.065Z,82.00
2018-09-11T06:26:28.468Z,82.00
2018-09-11T06:28:57.369Z,82.00
2018-09-11T06:31:25.727Z,81.90
2018-09-11T06:33:54.057Z,81.90
2018-09-11T06:36:22.664Z,81.90
2018-09-11T06:38:51.018Z,81.80
2018-09-11T06:41:19.578Z,81.90
2018-09-11T06:43:47.991Z,81.80
2018-09-11T06:46:16.413Z,81.70
2018-09-11T06:48:44.729Z,81.80
2018-09-11T06:51:13.242Z,81.70
2018-09-11T06:53:41.485Z,81.70
2018-09-11T06:56:09.826Z,81.60
2018-09-11T06:58:38.229Z,81.50
2018-09-11T07:01:06.623Z,81.30
2018-09-11T07:03:35.003Z,81.20
2018-09-11T07:06:05.418Z,81.10
2018-09-11T07:08:33.876Z,80.90
2018-09-11T07:11:02.757Z,80.90
2018-09-11T07:13:31.018Z,80.80
2018-09-11T07:15:59.340Z,80.80
2018-09-11T07:18:27.979Z,80.70
2018-09-11T07:20:56.460Z,80.60
2018-09-11T07:23:25.301Z,80.50
2018-09-11T07:25:54.031Z,80.40
2018-09-11T07:28:22.429Z,80.30
2018-09-11T07:30:52.393Z,80.40
2018-09-11T07:33:22.369Z,81.00
2018-09-11T07:35:50.772Z,80.20
2018-09-11T07:38:20.270Z,80.30
2018-09-11T07:40:48.758Z,80.20
2018-09-11T07:43:17.016Z,80.30
2018-09-11T07:45:45.343Z,80.30
2018-09-11T07:48:13.813Z,80.20
2018-09-11T07:50:42.197Z,80.20
2018-09-11T07:53:11.024Z,80.20
2018-09-11T07:55:39.659Z,80.10
2018-09-11T07:58:08.524Z,80.00
2018-09-11T08:00:37.034Z,80.10
2018-09-11T08:03:05.494Z,80.00
2018-09-11T08:05:33.889Z,80.10
2018-09-11T08:08:02.494Z,80.10
2018-09-11T08:10:30.936Z,79.90
2018-09-11T08:12:59.285Z,79.90
2018-09-11T08:15:27.994Z,79.90
2018-09-11T08:17:57.105Z,79.80
2018-09-11T08:20:25.722Z,79.60
2018-09-11T08:22:56.137Z,79.60
2018-09-11T08:25:25.088Z,79.50
2018-09-11T08:27:53.638Z,79.40
2018-09-11T08:30:22.137Z,79.40
2018-09-11T08:32:51.925Z,80.10
2018-09-11T08:35:20.329Z,80.00
2018-09-11T08:37:49.202Z,79.30
2018-09-11T08:40:17.767Z,79.30
2018-09-11T08:42:46.680Z,79.20
2018-09-11T08:45:17.499Z,79.00
2018-09-11T08:47:46.337Z,78.90
2018-09-11T08:53:16.820Z,78.60
2018-09-11T08:55:45.424Z,78.60
2018-09-11T08:58:14.094Z,78.50
2018-09-11T09:00:42.895Z,78.40
2018-09-11T09:03:11.504Z,78.30
2018-09-11T09:05:39.893Z,78.30
2018-09-11T09:08:09.820Z,78.20
2018-09-11T09:10:38.236Z,78.10
2018-09-11T09:13:06.647Z,78.10
2018-09-11T09:15:35.254Z,77.90
2018-09-11T09:18:04.214Z,77.90
2018-09-11T09:20:32.859Z,77.80
2018-09-11T09:23:01.209Z,77.60
2018-09-11T09:25:29.534Z,77.60
2018-09-11T09:27:58.620Z,77.60
2018-09-11T09:30:26.967Z,77.50
2018-09-11T09:32:55.780Z,77.50
2018-09-11T09:35:24.559Z,77.40
2018-09-11T09:37:52.818Z,77.30
2018-09-11T09:40:21.217Z,77.00
2018-09-11T09:42:49.829Z,76.80
2018-09-11T09:45:18.195Z,76.90
2018-09-11T09:47:46.593Z,76.70
2018-09-11T09:50:14.885Z,76.70
2018-09-11T09:52:43.177Z,76.70
2018-09-11T09:55:11.448Z,76.50
2018-09-11T09:57:39.750Z,76.40
2018-09-11T10:00:08.144Z,76.30
2018-09-11T10:02:36.373Z,76.20
2018-09-11T10:05:04.626Z,76.10
2018-09-11T10:07:32.996Z,76.00
2018-09-11T10:10:01.310Z,75.90
2018-09-11T10:12:29.567Z,75.90
2018-09-11T10:14:57.865Z,75.50
2018-09-11T10:17:26.244Z,75.70
2018-09-11T10:19:55.311Z,75.70
2018-09-11T10:22:23.608Z,75.50
2018-09-11T10:24:52.233Z,75.50
2018-09-11T10:27:21.484Z,75.20
2018-09-11T10:29:49.872Z,74.90
2018-09-11T10:32:18.580Z,74.70
2018-09-11T10:34:46.910Z,74.70
2018-09-11T10:37:15.183Z,74.50
2018-09-11T10:39:43.885Z,74.60
2018-09-11T10:42:12.490Z,74.60
2018-09-11T10:44:40.785Z,74.40
2018-09-11T10:47:09.672Z,74.00
2018-09-11T10:49:37.971Z,73.90
2018-09-11T10:52:06.675Z,73.50
2018-09-11T10:54:35.008Z,72.70
2018-09-11T10:57:03.367Z,73.10
2018-09-11T10:59:31.936Z,72.90
2018-09-11T11:02:00.258Z,72.60
2018-09-11T11:04:28.597Z,72.50
2018-09-11T11:06:57.000Z,72.20
2018-09-11T11:09:25.276Z,72.20
2018-09-11T11:11:53.613Z,72.20
2018-09-11T11:14:21.877Z,72.00
2018-09-11T11:16:50.230Z,71.80
2018-09-11T11:19:18.454Z,71.70
2018-09-11T11:21:46.857Z,72.20
2018-09-11T11:24:15.206Z,71.20
2018-09-11T11:26:43.575Z,70.90
2018-09-11T11:29:11.802Z,71.00
2018-09-11T11:31:40.143Z,70.50
2018-09-11T11:34:08.556Z,70.30
2018-09-11T11:36:37.179Z,68.70
2018-09-11T11:39:08.133Z,69.60
2018-09-11T11:41:36.852Z,69.30
2018-09-11T11:44:05.092Z,69.50
2018-09-11T11:46:33.470Z,69.60
2018-09-11T11:49:01.833Z,69.40
2018-09-11T11:51:30.115Z,68.60
2018-09-11T11:53:58.410Z,68.90
2018-09-11T11:56:26.807Z,68.70
2018-09-11T11:58:55.416Z,68.30
2018-09-11T12:01:23.854Z,68.60
2018-09-11T12:03:52.114Z,68.20
2018-09-11T12:06:20.809Z,68.20
2018-09-11T12:08:49.137Z,67.90
2018-09-11T12:11:17.442Z,68.00
2018-09-11T12:13:45.836Z,67.60
2018-09-11T12:16:14.197Z,68.50
2018-09-11T12:19:03.858Z,67.60
2018-09-11T12:21:32.182Z,67.30
2018-09-11T12:24:00.499Z,67.40
2018-09-11T12:26:28.777Z,67.30
2018-09-11T12:29:04.342Z,67.10
2018-09-11T12:31:32.629Z,67.00
2018-09-11T12:34:02.441Z,66.90
2018-09-11T12:36:30.736Z,66.90
2018-09-11T12:38:59.395Z,67.20
2018-09-11T12:41:27.746Z,66.30
2018-09-11T12:43:56.259Z,65.30
2018-09-11T12:46:25.033Z,65.70
2018-09-11T12:48:54.245Z,66.20
2018-09-11T12:51:22.501Z,65.80
2018-09-11T12:53:50.842Z,65.10
2018-09-11T12:56:20.404Z,64.70
2018-09-11T12:58:49.174Z,65.40
2018-09-11T13:01:32.450Z,66.10
2018-09-11T13:04:00.871Z,65.30
2018-09-11T13:06:29.494Z,65.50
2018-09-11T13:08:57.978Z,65.20
2018-09-11T13:11:26.256Z,64.70
2018-09-11T13:13:54.521Z,64.70
2018-09-11T13:16:22.963Z,65.10
2018-09-11T13:18:51.174Z,64.90
2018-09-11T13:21:19.600Z,63.80
2018-09-11T13:23:47.851Z,64.00
2018-09-11T13:26:16.171Z,64.00
2018-09-11T13:28:44.914Z,63.50
2018-09-11T13:31:13.477Z,63.80
2018-09-11T13:33:41.730Z,63.20
2018-09-11T13:36:10.751Z,62.80
2018-09-11T13:38:39.337Z,63.50
2018-09-11T13:41:07.839Z,62.90
2018-09-11T13:43:36.079Z,62.60
2018-09-11T13:46:10.808Z,62.70
2018-09-11T13:48:39.176Z,62.80
2018-09-11T13:51:07.410Z,62.70
2018-09-11T13:53:35.880Z,62.60
2018-09-11T13:56:04.241Z,63.40
2018-09-11T13:58:37.327Z,62.70
2018-09-11T14:01:05.898Z,62.20
2018-09-11T14:03:34.330Z,62.00
2018-09-11T14:06:02.565Z,61.70
2018-09-11T14:08:30.994Z,62.10
2018-09-11T14:10:59.264Z,61.90
2018-09-11T14:13:27.593Z,61.80
2018-09-11T14:15:56.045Z,61.50
2018-09-11T14:18:24.264Z,61.70
2018-09-11T14:20:52.504Z,61.50
2018-09-11T14:23:20.911Z,61.50
2018-09-11T14:25:49.166Z,61.50
2018-09-11T14:28:17.812Z,59.50
2018-09-11T14:30:46.527Z,60.50
2018-09-11T14:33:14.732Z,60.70
2018-09-11T14:35:42.968Z,59.30
2018-09-11T14:38:11.638Z,60.10
2018-09-11T14:40:39.888Z,60.10
2018-09-11T14:43:08.639Z,59.40
2018-09-11T14:45:36.883Z,59.60
2018-09-11T14:48:05.574Z,60.00
2018-09-11T14:50:34.087Z,60.10
2018-09-11T14:53:02.307Z,60.00
2018-09-11T14:55:30.834Z,60.00
2018-09-11T14:57:59.163Z,60.10
2018-09-11T15:00:27.486Z,60.00
2018-09-11T15:02:56.214Z,59.30
2018-09-11T15:05:24.548Z,59.60
2018-09-11T15:07:52.866Z,59.40
2018-09-11T15:10:21.204Z,58.90
2018-09-11T15:12:49.413Z,59.30
2018-09-11T15:15:17.703Z,59.00
2018-09-11T15:17:46.160Z,58.60
2018-09-11T15:20:14.751Z,59.10
2018-09-11T15:22:43.100Z,58.90
2018-09-11T15:25:11.459Z,59.00
2018-09-11T15:27:39.791Z,58.60
2018-09-11T15:30:08.077Z,59.10
2018-09-11T15:32:36.570Z,58.80
2018-09-11T15:35:04.883Z,58.90
2018-09-11T15:37:33.174Z,59.50
2018-09-11T15:40:01.448Z,59.20
2018-09-11T15:42:29.865Z,57.90
2018-09-11T15:44:58.163Z,58.60
2018-09-11T15:47:26.694Z,58.30
2018-09-11T15:49:54.905Z,58.60
2018-09-11T15:52:29.200Z,58.80
2018-09-11T15:54:57.458Z,59.00
2018-09-11T15:57:26.005Z,59.30
2018-09-11T15:59:54.471Z,59.40
2018-09-11T16:02:22.735Z,59.60
2018-09-11T16:04:51.000Z,59.60
2018-09-11T16:07:19.338Z,58.90
2018-09-11T16:09:47.630Z,59.40
2018-09-11T16:12:16.341Z,58.50
2018-09-11T16:14:44.688Z,59.30
2018-09-11T16:17:13.212Z,59.60
2018-09-11T16:19:41.447Z,59.70
2018-09-11T16:22:14.655Z,60.00
2018-09-11T16:24:42.823Z,60.20
2018-09-11T16:27:11.228Z,60.60
2018-09-11T16:29:39.577Z,60.50
2018-09-11T16:32:07.858Z,60.80
2018-09-11T16:34:36.376Z,60.80
2018-09-11T16:37:04.911Z,61.00
2018-09-11T16:42:25.489Z,61.20
2018-09-11T16:44:53.965Z,61.30
2018-09-11T16:47:22.265Z,61.50
2018-09-11T16:49:50.805Z,61.60
2018-09-11T16:52:19.179Z,61.60
2018-09-11T16:54:47.469Z,61.70
2018-09-11T16:57:15.857Z,61.90
2018-09-11T16:59:44.688Z,61.50
2018-09-11T17:02:13.177Z,61.90
2018-09-11T17:04:41.607Z,61.90
2018-09-11T17:07:10.095Z,61.90
2018-09-11T17:09:38.381Z,62.10
2018-09-11T17:12:06.898Z,62.10
2018-09-11T17:14:35.296Z,62.30
2018-09-11T17:17:03.689Z,62.50
2018-09-11T17:19:32.089Z,62.50
2018-09-11T17:22:00.493Z,62.60
2018-09-11T17:24:28.931Z,62.70
2018-09-11T17:26:57.260Z,62.90
2018-09-11T17:29:25.765Z,62.80
2018-09-11T17:31:54.029Z,62.90
2018-09-11T17:34:22.330Z,63.10
2018-09-11T17:36:50.925Z,63.20
2018-09-11T17:39:19.290Z,63.30
2018-09-11T17:41:52.678Z,63.30
2018-09-11T17:44:21.014Z,63.30
2018-09-11T17:46:50.713Z,63.50
2018-09-11T17:49:19.041Z,63.50
2018-09-11T17:51:47.704Z,63.70
2018-09-11T17:54:16.066Z,63.80
2018-09-11T17:56:44.431Z,64.00
2018-09-11T17:59:12.722Z,64.00
2018-09-11T18:01:41.046Z,64.10
2018-09-11T18:04:09.632Z,64.20
2018-09-11T18:06:38.280Z,64.30
2018-09-11T18:09:07.941Z,64.50
2018-09-11T18:11:38.902Z,64.60
2018-09-11T18:14:07.400Z,64.60
2018-09-11T18:16:35.898Z,64.70
2018-09-11T18:19:04.255Z,64.90
2018-09-11T18:21:32.847Z,65.00
2018-09-11T18:24:01.737Z,65.10
2018-09-11T18:26:30.216Z,65.10
2018-09-11T18:28:58.748Z,65.10
2018-09-11T18:31:27.176Z,65.30
2018-09-11T18:33:56.136Z,65.20
2018-09-11T18:36:24.617Z,65.40
2018-09-11T18:38:53.083Z,65.50
2018-09-11T18:41:21.520Z,65.60
2018-09-11T18:43:49.960Z,65.70
2018-09-11T18:46:18.529Z,65.80
2018-09-11T18:48:47.046Z,65.80
2018-09-11T18:51:15.592Z,65.90
2018-09-11T18:53:46.111Z,66.00
2018-09-11T18:56:14.492Z,66.10
2018-09-11T18:58:43.086Z,66.10
2018-09-11T19:01:11.536Z,66.30
2018-09-11T19:03:39.932Z,66.40
2018-09-11T19:06:08.455Z,66.50
2018-09-11T19:08:36.914Z,66.50
2018-09-11T19:11:05.401Z,66.50
2018-09-11T19:13:37.565Z,67.10
2018-09-11T19:16:05.951Z,66.70
2018-09-11T19:18:34.677Z,66.70
2018-09-11T19:21:03.153Z,66.70
2018-09-11T19:23:31.637Z,66.80
2018-09-11T19:26:00.104Z,66.80
2018-09-11T19:28:29.268Z,66.90
2018-09-11T19:30:57.755Z,67.00
2018-09-11T19:33:26.136Z,67.00
2018-09-11T19:35:54.672Z,66.90
2018-09-11T19:38:23.143Z,67.00
2018-09-11T19:40:51.633Z,67.10
2018-09-11T19:43:20.005Z,67.10
2018-09-11T19:45:48.420Z,67.20
2018-09-11T19:48:16.750Z,67.30
2018-09-11T19:50:45.661Z,67.30
2018-09-11T19:53:14.038Z,67.20
2018-09-11T19:55:42.417Z,67.30
2018-09-11T19:58:10.912Z,67.90
2018-09-11T20:00:39.633Z,67.40
2018-09-11T20:03:08.356Z,67.40
2018-09-11T20:05:36.950Z,67.40
2018-09-11T20:08:05.537Z,67.50
2018-09-11T20:10:33.948Z,67.50
2018-09-11T20:13:02.405Z,67.60
2018-09-11T20:15:34.519Z,67.60
2018-09-11T20:18:02.937Z,67.70
2018-09-11T20:20:31.370Z,67.70
2018-09-11T20:23:00.119Z,67.80
2018-09-11T20:25:28.502Z,67.80
2018-09-11T20:27:56.956Z,68.00
2018-09-11T20:30:25.415Z,68.00
2018-09-11T20:32:53.816Z,68.10
2018-09-11T20:35:22.136Z,68.20
2018-09-11T20:37:50.627Z,68.20
2018-09-11T20:40:19.156Z,68.30
2018-09-11T20:42:47.806Z,68.40
2018-09-11T20:45:16.326Z,68.50
2018-09-11T20:47:44.729Z,68.50
2018-09-11T20:50:13.420Z,68.60
2018-09-11T20:52:41.858Z,68.60
2018-09-11T20:55:10.176Z,68.70
2018-09-11T20:57:42.267Z,68.70
2018-09-11T21:00:10.650Z,68.80
2018-09-11T21:02:39.379Z,68.80
2018-09-11T21:05:08.040Z,68.90
2018-09-11T21:07:39.393Z,68.80
2018-09-11T21:10:08.049Z,69.00
2018-09-11T21:12:36.446Z,69.00
2018-09-11T21:15:05.184Z,69.10
2018-09-11T21:17:33.575Z,69.30
2018-09-11T21:20:02.116Z,69.40
2018-09-11T21:22:30.653Z,69.40
2018-09-11T21:24:59.047Z,69.50
2018-09-11T21:27:27.550Z,69.60
2018-09-11T21:29:55.932Z,69.70
2018-09-11T21:32:24.308Z,69.80
2018-09-11T21:34:52.579Z,69.90
2018-09-11T21:37:21.153Z,69.90
2018-09-11T21:39:49.539Z,70.00
2018-09-11T21:42:17.778Z,70.20
2018-09-11T21:44:46.238Z,70.30
2018-09-11T21:47:14.656Z,70.30
2018-09-11T21:49:43.240Z,70.40
2018-09-11T21:52:11.532Z,70.40
2018-09-11T21:54:40.337Z,70.50
2018-09-11T21:57:08.705Z,70.60
2018-09-11T21:59:37.080Z,70.80
2018-09-11T22:02:05.417Z,70.80
2018-09-11T22:04:33.745Z,70.80
2018-09-11T22:07:02.086Z,71.50
2018-09-11T22:09:30.729Z,70.90
2018-09-11T22:11:59.354Z,71.00
2018-09-11T22:14:27.685Z,71.10
2018-09-11T22:16:55.913Z,71.10
2018-09-11T22:19:24.365Z,71.10
2018-09-11T22:21:57.584Z,71.20
2018-09-11T22:24:26.032Z,71.20
2018-09-11T22:26:54.584Z,71.40
2018-09-11T22:29:22.937Z,71.40
2018-09-11T22:31:51.302Z,71.50
2018-09-11T22:34:19.720Z,71.50
2018-09-11T22:36:48.039Z,72.30
2018-09-11T22:39:16.610Z,71.60
2018-09-11T22:41:45.050Z,71.60
2018-09-11T22:44:13.370Z,71.60
2018-09-11T22:46:41.672Z,71.60
2018-09-11T22:49:10.187Z,71.70
2018-09-11T22:51:38.582Z,71.60
2018-09-11T22:54:06.875Z,71.70
2018-09-11T22:56:35.581Z,71.80
2018-09-11T22:59:04.170Z,71.90
2018-09-11T23:01:36.263Z,72.00
2018-09-11T23:04:04.517Z,71.80
2018-09-11T23:06:33.163Z,72.00
2018-09-11T23:09:01.466Z,71.90
2018-09-11T23:11:29.828Z,72.10
2018-09-11T23:13:58.508Z,72.10
2018-09-11T23:16:26.754Z,72.20
2018-09-11T23:18:55.234Z,72.30
2018-09-11T23:21:23.881Z,72.30
2018-09-11T23:23:52.602Z,72.30
2018-09-11T23:26:20.986Z,72.40
2018-09-11T23:28:49.910Z,72.50
2018-09-11T23:31:18.236Z,72.50
2018-09-11T23:33:46.558Z,72.50
2018-09-11T23:36:15.112Z,72.60
2018-09-11T23:38:43.744Z,72.60
2018-09-11T23:41:14.051Z,72.70
2018-09-11T23:43:42.800Z,72.80
2018-09-11T23:46:11.138Z,72.70
2018-09-11T23:48:39.458Z,72.80
2018-09-11T23:51:07.800Z,72.80
2018-09-11T23:53:36.100Z,72.80
2018-09-11T23:56:04.392Z,72.90
2018-09-11T23:58:32.792Z,73.00
